createdAt,value
2023-05-06T00:02:11.151Z,1.90
2023-05-06T00:04:38.606Z,0.40
2023-05-06T00:07:05.756Z,1.90
2023-05-06T00:09:32.618Z,1.90
2023-05-06T00:11:59.557Z,1.90
2023-05-06T00:14:26.510Z,2.60
2023-05-06T00:16:53.336Z,2.10
2023-05-06T00:19:20.657Z,2.00
2023-05-06T00:21:47.537Z,2.30
2023-05-06T00:24:14.382Z,1.50
2023-05-06T00:26:41.334Z,2.20
2023-05-06T00:29:08.368Z,1.90
2023-05-06T00:31:35.257Z,2.00
2023-05-06T00:34:02.472Z,2.00
2023-05-06T00:36:29.629Z,0.90
2023-05-06T00:38:56.972Z,1.80
2023-05-06T00:41:23.927Z,1.90
2023-05-06T00:43:50.967Z,2.30
2023-05-06T00:46:18.283Z,1.90
2023-05-06T00:48:45.780Z,2.30
2023-05-06T00:51:12.642Z,1.00
2023-05-06T00:53:39.994Z,2.10
2023-05-06T00:56:07.025Z,1.30
2023-05-06T00:58:34.734Z,1.90
2023-05-06T01:01:02.516Z,2.40
2023-05-06T01:03:29.875Z,2.20
2023-05-06T01:06:03.098Z,2.00
2023-05-06T01:08:42.959Z,2.30
2023-05-06T01:11:15.604Z,1.90
2023-05-06T01:13:51.305Z,2.40
2023-05-06T01:16:19.705Z,0.90
2023-05-06T01:18:46.611Z,1.90
2023-05-06T01:21:14.377Z,1.90
2023-05-06T01:23:58.278Z,1.80
2023-05-06T01:26:25.521Z,2.20
2023-05-06T01:28:52.828Z,1.80
2023-05-06T01:31:22.772Z,1.90
2023-05-06T01:34:25.540Z,1.90
2023-05-06T01:37:04.775Z,1.80
2023-05-06T01:39:31.590Z,1.80
2023-05-06T01:41:59.477Z,1.80
2023-05-06T01:44:27.721Z,1.90
2023-05-06T01:46:54.635Z,2.30
2023-05-06T01:49:21.543Z,2.00
2023-05-06T01:51:53.061Z,2.00
2023-05-06T01:54:20.041Z,1.00
2023-05-06T01:56:46.865Z,1.80
2023-05-06T01:59:15.171Z,1.70
2023-05-06T02:01:42.129Z,0.60
2023-05-06T02:04:09.098Z,2.20
2023-05-06T02:06:36.260Z,1.70
2023-05-06T02:09:03.259Z,1.70
2023-05-06T02:11:31.902Z,2.00
2023-05-06T02:14:03.303Z,1.00
2023-05-06T02:16:32.824Z,1.70
2023-05-06T02:19:00.057Z,1.90
2023-05-06T02:21:28.019Z,1.90
2023-05-06T02:23:54.884Z,1.10
2023-05-06T02:26:21.802Z,1.90
2023-05-06T02:28:48.859Z,1.70
2023-05-06T02:31:16.360Z,1.70
2023-05-06T02:33:44.594Z,1.60
2023-05-06T02:36:11.541Z,0.80
2023-05-06T02:38:38.492Z,1.70
2023-05-06T02:41:05.517Z,1.50
2023-05-06T02:43:32.366Z,0.80
2023-05-06T02:45:59.147Z,1.50
2023-05-06T02:48:26.047Z,1.70
2023-05-06T02:50:52.998Z,1.40
2023-05-06T02:53:19.837Z,1.70
2023-05-06T02:55:46.754Z,0.50
2023-05-06T02:58:14.546Z,1.60
2023-05-06T03:00:41.408Z,1.40
2023-05-06T03:03:09.166Z,1.30
2023-05-06T03:05:36.099Z,1.90
2023-05-06T03:08:03.203Z,0.90
2023-05-06T03:10:31.122Z,1.40
2023-05-06T03:12:58.486Z,1.50
2023-05-06T03:15:25.521Z,1.60
2023-05-06T03:17:53.960Z,1.80
2023-05-06T03:20:21.608Z,0.60
2023-05-06T03:22:51.726Z,1.40
2023-05-06T03:25:19.133Z,0.50
2023-05-06T03:27:46.255Z,1.70
2023-05-06T03:30:17.532Z,1.40
2023-05-06T03:32:45.030Z,0.50
2023-05-06T03:35:14.009Z,1.30
2023-05-06T03:37:41.927Z,1.40
2023-05-06T03:40:09.730Z,1.40
2023-05-06T03:42:36.893Z,1.50
2023-05-06T03:45:05.197Z,0.30
2023-05-06T03:47:32.558Z,1.70
2023-05-06T03:50:00.648Z,0.80
2023-05-06T03:52:27.537Z,1.60
2023-05-06T03:54:54.607Z,1.40
2023-05-06T03:57:21.733Z,2.00
2023-05-06T03:59:48.872Z,1.60
2023-05-06T04:02:16.380Z,0.80
2023-05-06T04:04:45.023Z,1.60
2023-05-06T04:07:12.040Z,1.60
2023-05-06T04:09:38.885Z,1.80
2023-05-06T04:12:07.399Z,2.20
2023-05-06T04:14:34.957Z,0.70
2023-05-06T04:17:02.517Z,1.80
2023-05-06T04:19:29.756Z,2.30
2023-05-06T04:21:56.701Z,0.60
2023-05-06T04:24:23.561Z,1.90
2023-05-06T04:26:50.660Z,1.70
2023-05-06T04:29:19.560Z,1.00
2023-05-06T04:31:56.093Z,1.40
2023-05-06T04:34:25.208Z,1.90
2023-05-06T04:36:54.283Z,0.70
2023-05-06T04:39:39.383Z,1.80
2023-05-06T04:42:06.476Z,1.00
2023-05-06T04:44:39.150Z,1.70
2023-05-06T04:47:08.453Z,1.70
2023-05-06T04:49:35.811Z,0.90
2023-05-06T04:52:03.701Z,1.80
2023-05-06T04:54:31.317Z,2.20
2023-05-06T04:56:58.294Z,1.00
2023-05-06T04:59:26.371Z,2.00
2023-05-06T05:01:53.968Z,2.10
2023-05-06T05:04:20.965Z,2.10
2023-05-06T05:06:47.826Z,0.60
2023-05-06T05:09:15.312Z,1.80
2023-05-06T05:11:43.642Z,1.80
2023-05-06T05:14:10.602Z,1.90
2023-05-06T05:16:37.919Z,2.00
2023-05-06T05:19:08.324Z,2.00
2023-05-06T05:21:36.606Z,2.10
2023-05-06T05:24:04.419Z,1.70
2023-05-06T05:26:31.772Z,2.00
2023-05-06T05:28:59.227Z,0.60
2023-05-06T05:31:26.219Z,1.60
2023-05-06T05:33:53.163Z,1.60
2023-05-06T05:36:21.826Z,1.70
2023-05-06T05:38:50.198Z,1.60
2023-05-06T05:41:17.714Z,2.00
2023-05-06T05:43:44.811Z,1.70
2023-05-06T05:46:11.868Z,1.60
2023-05-06T05:48:40.170Z,2.00
2023-05-06T05:51:07.501Z,1.60
2023-05-06T05:53:34.722Z,2.00
2023-05-06T05:56:03.117Z,1.70
2023-05-06T05:58:30.153Z,1.50
2023-05-06T06:00:58.737Z,1.70
2023-05-06T06:03:25.919Z,1.40
2023-05-06T06:05:55.390Z,1.40
2023-05-06T06:08:23.768Z,1.70
2023-05-06T06:10:51.629Z,2.00
2023-05-06T06:13:21.932Z,1.40
2023-05-06T06:15:49.280Z,2.00
2023-05-06T06:18:16.291Z,1.60
2023-05-06T06:20:43.417Z,1.60
2023-05-06T06:23:11.225Z,1.00
2023-05-06T06:25:38.119Z,1.60
2023-05-06T06:28:05.531Z,1.90
2023-05-06T06:30:33.035Z,1.60
2023-05-06T06:33:01.511Z,1.30
2023-05-06T06:35:29.187Z,1.70
2023-05-06T06:51:13.486Z,1.60
2023-05-06T06:53:41.514Z,1.70
2023-05-06T06:56:14.437Z,1.10
2023-05-06T06:58:41.455Z,1.30
2023-05-06T07:01:08.422Z,1.20
2023-05-06T07:03:35.601Z,1.20
2023-05-06T07:06:02.448Z,1.30
2023-05-06T07:08:30.082Z,1.20
2023-05-06T07:10:57.027Z,1.60
2023-05-06T07:13:23.904Z,1.50
2023-05-06T07:15:50.969Z,1.20
2023-05-06T07:18:17.920Z,1.10
2023-05-06T07:20:44.960Z,1.40
2023-05-06T07:23:11.903Z,1.30
2023-05-06T07:25:38.957Z,1.60
2023-05-06T07:28:05.902Z,1.50
2023-05-06T07:30:32.705Z,1.30
2023-05-06T07:32:59.733Z,1.80
2023-05-06T07:35:26.636Z,1.90
2023-05-06T07:37:54.212Z,1.40
2023-05-06T07:40:21.346Z,1.70
2023-05-06T07:42:48.188Z,1.70
2023-05-06T07:45:15.494Z,1.50
2023-05-06T07:47:42.610Z,1.50
2023-05-06T07:50:10.714Z,1.70
2023-05-06T07:52:37.712Z,1.80
2023-05-06T07:55:05.119Z,1.70
2023-05-06T07:57:32.121Z,1.60
2023-05-06T07:59:59.267Z,2.00
2023-05-06T08:02:27.513Z,1.70
2023-05-06T08:04:54.603Z,1.50
2023-05-06T08:07:21.741Z,1.40
2023-05-06T08:09:48.794Z,1.70
2023-05-06T08:12:16.247Z,1.40
2023-05-06T08:14:43.103Z,1.80
2023-05-06T08:17:10.035Z,1.50
2023-05-06T08:19:36.819Z,1.70
2023-05-06T08:22:03.648Z,1.90
2023-05-06T08:24:30.487Z,1.70
2023-05-06T08:26:57.373Z,3.40
2023-05-06T08:29:24.360Z,1.80
2023-05-06T08:31:51.438Z,1.60
2023-05-06T08:34:20.807Z,1.90
2023-05-06T08:36:48.624Z,1.40
2023-05-06T08:39:15.665Z,1.40
2023-05-06T08:41:42.685Z,1.60
2023-05-06T08:44:09.620Z,1.70
2023-05-06T08:46:36.457Z,1.70
2023-05-06T08:49:03.434Z,2.10
2023-05-06T08:51:31.968Z,1.80
2023-05-06T08:54:05.025Z,1.70
2023-05-06T08:56:33.416Z,2.00
2023-05-06T08:59:01.405Z,1.70
2023-05-06T09:01:28.938Z,2.10
2023-05-06T09:03:57.075Z,1.70
2023-05-06T09:06:25.239Z,1.80
2023-05-06T09:08:52.300Z,1.60
2023-05-06T09:11:39.004Z,1.50
2023-05-06T09:14:13.061Z,1.20
2023-05-06T09:16:42.100Z,1.50
2023-05-06T09:19:09.051Z,1.80
2023-05-06T09:21:37.152Z,1.80
2023-05-06T09:24:05.092Z,2.00
2023-05-06T09:26:32.679Z,1.50
2023-05-06T09:28:59.768Z,1.40
2023-05-06T09:31:27.403Z,1.80
2023-05-06T09:33:55.222Z,2.20
2023-05-06T09:36:22.598Z,1.60
2023-05-06T09:38:49.805Z,1.80
2023-05-06T09:41:20.917Z,1.80
2023-05-06T09:43:49.409Z,1.20
2023-05-06T09:46:17.037Z,1.50
2023-05-06T09:48:44.990Z,1.80
2023-05-06T09:51:11.834Z,1.60
2023-05-06T09:53:38.796Z,1.30
2023-05-06T09:56:06.416Z,1.50
2023-05-06T09:58:34.103Z,1.40
2023-05-06T10:01:01.766Z,1.60
2023-05-06T10:03:28.664Z,1.60
2023-05-06T10:05:57.362Z,1.70
2023-05-06T10:08:24.784Z,1.60
2023-05-06T10:10:51.843Z,1.60
2023-05-06T10:13:20.178Z,1.60
2023-05-06T10:15:48.323Z,1.50
2023-05-06T10:18:19.853Z,1.80
2023-05-06T10:20:47.880Z,1.80
2023-05-06T10:23:22.608Z,1.70
2023-05-06T10:25:52.218Z,1.30
2023-05-06T10:28:21.350Z,1.30
2023-05-06T10:30:57.368Z,1.40
2023-05-06T10:33:24.308Z,1.60
2023-05-06T10:36:03.417Z,1.60
2023-05-06T10:38:33.875Z,1.70
2023-05-06T10:41:00.928Z,1.60
2023-05-06T10:43:29.771Z,1.80
2023-05-06T10:46:18.084Z,1.90
2023-05-06T10:49:06.622Z,1.70
2023-05-06T10:51:34.588Z,1.80
2023-05-06T10:54:02.739Z,2.10
2023-05-06T10:56:31.376Z,1.20
2023-05-06T10:59:26.538Z,1.80
2023-05-06T11:02:02.864Z,1.80
2023-05-06T11:04:32.672Z,1.80
2023-05-06T11:07:16.205Z,2.00
2023-05-06T11:10:05.306Z,2.10
2023-05-06T11:12:55.978Z,2.10
2023-05-06T11:15:38.294Z,1.60
2023-05-06T11:18:24.521Z,2.10
2023-05-06T11:21:15.742Z,1.60
2023-05-06T11:23:42.831Z,2.10
2023-05-06T11:26:10.551Z,1.60
2023-05-06T11:28:37.611Z,1.50
2023-05-06T11:31:04.659Z,1.80
2023-05-06T11:33:35.946Z,1.70
2023-05-06T11:36:03.674Z,1.70
2023-05-06T11:38:41.259Z,1.60
2023-05-06T11:41:08.130Z,1.60
2023-05-06T11:43:34.930Z,1.70
2023-05-06T11:46:01.800Z,1.80
2023-05-06T11:48:28.834Z,1.40
2023-05-06T11:50:58.648Z,1.60
2023-05-06T11:53:25.563Z,1.90
2023-05-06T11:55:53.198Z,2.20
2023-05-06T11:58:30.601Z,1.50
2023-05-06T12:01:02.818Z,1.70
2023-05-06T12:03:31.677Z,1.80
2023-05-06T12:05:58.772Z,1.50
2023-05-06T12:08:28.466Z,1.70
2023-05-06T12:10:56.992Z,1.70
2023-05-06T12:13:24.044Z,2.00
2023-05-06T12:15:51.283Z,1.60
2023-05-06T12:18:18.330Z,1.70
2023-05-06T12:20:45.750Z,2.20
2023-05-06T12:23:13.535Z,1.70
2023-05-06T12:25:40.884Z,1.90
2023-05-06T12:28:18.056Z,2.10
2023-05-06T12:30:45.616Z,2.00
2023-05-06T12:33:12.634Z,1.70
2023-05-06T12:35:39.944Z,1.70
2023-05-06T12:38:14.095Z,1.70
2023-05-06T12:40:41.751Z,2.00
2023-05-06T12:43:09.468Z,1.50
2023-05-06T12:45:38.790Z,1.50
2023-05-06T12:48:06.812Z,1.50
2023-05-06T12:50:39.362Z,1.60
2023-05-06T12:53:07.280Z,1.70
2023-05-06T12:55:34.746Z,1.70
2023-05-06T12:58:01.646Z,1.70
2023-05-06T13:00:28.666Z,1.40
2023-05-06T13:02:55.716Z,1.60
2023-05-06T13:05:23.212Z,1.30
2023-05-06T13:07:51.304Z,1.60
2023-05-06T13:10:18.153Z,1.60
2023-05-06T13:12:45.159Z,1.60
2023-05-06T13:15:11.978Z,1.60
2023-05-06T13:17:39.029Z,1.70
2023-05-06T13:20:07.418Z,1.70
2023-05-06T13:22:46.955Z,1.40
2023-05-06T13:27:47.468Z,1.30
2023-05-06T13:30:14.502Z,1.50
2023-05-06T13:32:41.392Z,1.50
2023-05-06T13:35:09.150Z,1.60
2023-05-06T13:37:36.096Z,1.90
2023-05-06T13:40:03.506Z,1.60
2023-05-06T13:42:30.524Z,1.40
2023-05-06T13:44:57.388Z,1.30
2023-05-06T13:47:24.437Z,1.30
2023-05-06T13:49:51.511Z,1.60
2023-05-06T13:52:18.299Z,1.70
2023-05-06T13:54:46.410Z,1.70
2023-05-06T13:57:13.180Z,1.70
2023-05-06T13:59:39.967Z,1.80
2023-05-06T14:02:09.435Z,2.00
2023-05-06T14:04:36.822Z,1.50
2023-05-06T14:07:03.740Z,1.30
2023-05-06T14:09:31.169Z,1.70
2023-05-06T14:11:58.009Z,1.50
2023-05-06T14:14:24.952Z,1.70
2023-05-06T14:16:54.659Z,1.60
2023-05-06T14:19:22.139Z,1.80
2023-05-06T14:21:49.172Z,1.50
2023-05-06T14:24:16.071Z,1.70
2023-05-06T14:26:42.924Z,2.10
2023-05-06T14:29:09.814Z,1.60
2023-05-06T14:31:37.235Z,1.50
2023-05-06T14:34:04.305Z,1.30
2023-05-06T14:36:31.409Z,1.50
2023-05-06T14:38:58.413Z,1.20
2023-05-06T14:41:25.351Z,1.60
2023-05-06T14:43:52.293Z,1.90
2023-05-06T14:46:19.284Z,1.50
2023-05-06T14:48:46.228Z,1.70
2023-05-06T14:51:13.229Z,1.20
2023-05-06T14:53:40.157Z,1.50
2023-05-06T14:56:10.440Z,1.60
2023-05-06T14:58:37.368Z,1.80
2023-05-06T15:01:04.467Z,1.60
2023-05-06T15:03:31.361Z,1.40
2023-05-06T15:05:58.278Z,1.60
2023-05-06T15:08:26.474Z,1.60
2023-05-06T15:10:53.429Z,1.50
2023-05-06T15:13:20.305Z,1.50
2023-05-06T15:15:47.190Z,1.20
2023-05-06T15:18:14.149Z,1.60
2023-05-06T15:20:41.098Z,1.30
2023-05-06T15:23:08.029Z,1.50
2023-05-06T15:25:36.574Z,1.70
2023-05-06T15:28:05.089Z,1.40
2023-05-06T15:30:32.088Z,1.60
2023-05-06T15:32:59.080Z,1.60
2023-05-06T15:35:26.098Z,1.50
2023-05-06T15:37:55.573Z,1.80
2023-05-06T15:40:25.564Z,1.70
2023-05-06T15:42:52.724Z,1.50
2023-05-06T15:45:19.866Z,1.50
2023-05-06T15:47:48.420Z,1.70
2023-05-06T15:50:25.305Z,1.50
2023-05-06T15:52:59.349Z,1.70
2023-05-06T15:55:26.604Z,1.60
2023-05-06T15:57:54.903Z,1.60
2023-05-06T16:00:22.159Z,1.80
2023-05-06T16:02:49.272Z,1.40
2023-05-06T16:05:16.522Z,1.40
2023-05-06T16:07:43.785Z,1.50
2023-05-06T16:10:10.831Z,1.70
2023-05-06T16:12:37.921Z,1.80
2023-05-06T16:15:05.171Z,1.50
2023-05-06T16:17:33.078Z,1.50
2023-05-06T16:19:59.919Z,1.50
2023-05-06T16:22:26.784Z,1.60
2023-05-06T16:24:53.609Z,1.40
2023-05-06T16:27:21.222Z,1.50
2023-05-06T16:29:48.302Z,1.60
2023-05-06T16:32:15.179Z,1.50
2023-05-06T16:34:42.024Z,1.50
2023-05-06T16:37:09.077Z,1.70
2023-05-06T16:39:36.062Z,1.70
2023-05-06T16:42:03.214Z,1.70
2023-05-06T16:44:30.215Z,1.60
2023-05-06T16:46:57.027Z,1.60
2023-05-06T16:49:27.799Z,1.40
2023-05-06T16:51:54.796Z,1.80
2023-05-06T16:54:21.599Z,1.80
2023-05-06T16:56:52.458Z,1.60
2023-05-06T16:59:21.955Z,1.90
2023-05-06T17:01:50.166Z,1.60
2023-05-06T17:04:17.209Z,1.90
2023-05-06T17:06:44.407Z,1.80
2023-05-06T17:09:11.352Z,1.90
2023-05-06T17:11:38.290Z,2.20
2023-05-06T17:14:05.121Z,2.20
2023-05-06T17:16:32.075Z,1.90
2023-05-06T17:18:59.033Z,1.70
2023-05-06T17:21:27.110Z,2.10
2023-05-06T17:23:54.580Z,2.10
2023-05-06T17:26:22.021Z,2.30
2023-05-06T17:28:49.092Z,2.50
2023-05-06T17:31:16.231Z,2.40
2023-05-06T17:33:44.687Z,2.40
2023-05-06T17:36:12.988Z,2.50
2023-05-06T17:38:40.039Z,2.30
2023-05-06T17:41:06.971Z,2.50
2023-05-06T17:43:34.319Z,2.60
2023-05-06T17:46:01.542Z,2.50
2023-05-06T17:48:28.635Z,2.80
2023-05-06T17:51:01.206Z,2.80
2023-05-06T17:53:28.854Z,2.60
2023-05-06T17:55:56.207Z,2.60
2023-05-06T17:58:23.419Z,2.90
2023-05-06T18:00:50.320Z,2.60
2023-05-06T18:03:17.328Z,2.30
2023-05-06T18:05:44.409Z,2.70
2023-05-06T18:08:11.216Z,2.90
2023-05-06T18:10:39.024Z,2.60
2023-05-06T18:13:07.317Z,2.30
2023-05-06T18:15:34.133Z,2.70
2023-05-06T18:18:01.289Z,2.90
2023-05-06T18:20:28.636Z,2.50
2023-05-06T18:22:56.333Z,2.80
2023-05-06T18:25:23.238Z,3.10
2023-05-06T18:27:50.088Z,3.00
2023-05-06T18:30:16.998Z,2.60
2023-05-06T18:32:43.928Z,3.60
2023-05-06T18:35:11.276Z,3.50
2023-05-06T18:37:38.795Z,3.80
2023-05-06T18:40:09.080Z,4.10
2023-05-06T18:42:36.308Z,4.50
2023-05-06T18:45:04.995Z,4.50
2023-05-06T18:47:33.104Z,3.80
2023-05-06T18:50:00.872Z,4.30
2023-05-06T18:52:27.676Z,4.00
2023-05-06T18:54:54.536Z,3.50
2023-05-06T19:08:55.719Z,4.00
2023-05-06T19:11:22.659Z,3.70
2023-05-06T19:13:50.179Z,3.10
2023-05-06T19:16:17.098Z,3.50
2023-05-06T19:18:44.205Z,3.20
2023-05-06T19:21:11.959Z,3.20
2023-05-06T19:23:39.027Z,3.50
2023-05-06T19:26:06.802Z,3.30
2023-05-06T19:28:34.460Z,3.10
2023-05-06T19:31:01.744Z,3.40
2023-05-06T19:33:28.869Z,3.50
2023-05-06T19:35:55.793Z,3.40
2023-05-06T19:38:22.708Z,3.40
2023-05-06T19:40:49.692Z,3.10
2023-05-06T19:43:16.837Z,3.50
2023-05-06T19:45:43.886Z,3.30
2023-05-06T19:48:10.940Z,3.10
2023-05-06T19:50:37.799Z,3.10
2023-05-06T19:53:04.641Z,2.90
2023-05-06T19:55:31.771Z,3.00
2023-05-06T19:57:58.836Z,3.00
2023-05-06T20:00:28.243Z,2.80
2023-05-06T20:02:59.901Z,2.30
2023-05-06T20:05:30.943Z,2.30
2023-05-06T20:08:01.261Z,1.90
2023-05-06T20:10:28.597Z,2.50
2023-05-06T20:12:57.337Z,2.60
2023-05-06T20:15:25.276Z,2.50
2023-05-06T20:17:52.311Z,2.80
2023-05-06T20:20:19.568Z,2.50
2023-05-06T20:22:46.608Z,2.60
2023-05-06T20:25:16.321Z,2.60
2023-05-06T20:27:43.983Z,2.40
2023-05-06T20:30:12.438Z,2.60
2023-05-06T20:32:39.737Z,2.40
2023-05-06T20:35:07.381Z,2.80
2023-05-06T20:37:35.374Z,2.70
2023-05-06T20:40:04.820Z,2.70
2023-05-06T20:42:31.981Z,2.40
2023-05-06T20:44:58.942Z,2.40
2023-05-06T20:47:26.644Z,2.30
2023-05-06T20:49:53.857Z,2.40
2023-05-06T20:52:21.901Z,2.70
2023-05-06T20:54:48.953Z,2.30
2023-05-06T20:57:17.402Z,2.10
2023-05-06T20:59:44.508Z,2.10
2023-05-06T21:02:11.567Z,2.80
2023-05-06T21:04:38.727Z,2.20
2023-05-06T21:07:05.857Z,2.30
2023-05-06T21:09:32.818Z,2.10
2023-05-06T21:11:59.800Z,2.30
2023-05-06T21:14:26.976Z,2.90
2023-05-06T21:16:53.945Z,2.50
2023-05-06T21:19:21.097Z,2.40
2023-05-06T21:21:48.481Z,2.50
2023-05-06T21:24:15.748Z,2.30
2023-05-06T21:26:42.746Z,2.00
2023-05-06T21:29:09.599Z,2.20
2023-05-06T21:31:36.667Z,2.30
2023-05-06T21:34:04.382Z,2.40
2023-05-06T21:36:31.383Z,1.90
2023-05-06T21:39:12.193Z,2.50
2023-05-06T21:41:39.423Z,2.10
2023-05-06T21:44:07.250Z,2.30
2023-05-06T21:46:34.670Z,1.80
2023-05-06T21:49:01.657Z,2.40
2023-05-06T21:51:29.245Z,2.40
2023-05-06T21:53:56.163Z,2.40
2023-05-06T21:56:23.041Z,2.50
2023-05-06T21:58:51.291Z,2.50
2023-05-06T22:01:18.379Z,2.30
2023-05-06T22:03:46.268Z,2.30
2023-05-06T22:06:13.444Z,2.20
2023-05-06T22:08:41.126Z,1.90
2023-05-06T22:11:08.055Z,2.70
2023-05-06T22:13:35.233Z,2.40
2023-05-06T22:16:02.174Z,2.90
2023-05-06T22:18:30.163Z,2.60
2023-05-06T22:20:57.983Z,2.50
2023-05-06T22:23:25.692Z,2.30
2023-05-06T22:25:52.518Z,2.20
2023-05-06T22:28:19.971Z,2.30
2023-05-06T22:30:46.884Z,2.60
2023-05-06T22:33:13.743Z,2.40
2023-05-06T22:35:40.796Z,2.60
2023-05-06T22:38:08.259Z,2.20
2023-05-06T22:40:35.297Z,2.20
2023-05-06T22:43:02.244Z,2.50
2023-05-06T22:45:29.144Z,2.40
2023-05-06T22:47:56.200Z,2.60
2023-05-06T22:50:23.174Z,3.00
2023-05-06T22:52:50.130Z,2.70
2023-05-06T22:55:17.049Z,2.70
2023-05-06T22:57:44.423Z,2.60
2023-05-06T23:00:12.879Z,2.60
2023-05-06T23:02:39.981Z,2.80
2023-05-06T23:05:07.509Z,2.20
2023-05-06T23:07:34.464Z,2.30
2023-05-06T23:10:01.647Z,2.80
2023-05-06T23:12:32.396Z,3.10
2023-05-06T23:15:00.418Z,2.60
2023-05-06T23:17:27.369Z,2.70
2023-05-06T23:19:54.304Z,2.80
2023-05-06T23:22:21.369Z,3.00
2023-05-06T23:24:48.400Z,2.50
2023-05-06T23:27:15.361Z,2.60
2023-05-06T23:29:42.205Z,2.30
2023-05-06T23:32:09.027Z,2.30
2023-05-06T23:34:35.829Z,2.10
2023-05-06T23:37:02.656Z,3.10
2023-05-06T23:39:29.569Z,2.80
2023-05-06T23:41:56.520Z,2.70
2023-05-06T23:44:23.563Z,2.30
2023-05-06T23:46:50.571Z,2.60
2023-05-06T23:49:17.633Z,2.90
2023-05-06T23:51:44.598Z,2.20
2023-05-06T23:54:11.552Z,2.70
2023-05-06T23:56:38.401Z,3.10
2023-05-06T23:59:05.645Z,2.40
